Time;durP1;ratioP1;P1;durP2;ratioP2;P2;SDS_P1;SDS_P2;PMS_P1;PMS_P2;Temp;Humidity;BMP_temperature;BMP_pressure;BME280_temperature;BME280_humidity;BME280_pressure;Samples;Min_cycle;Max_cycle;Signal;HPM_P1;HPM_P2
2020/03/30 00:01:54;;;;;;;3.2;3;;;;;;;;;;;;;
2020/03/30 00:04:14;;;;;;;3.7;3.4;;;;;;;;;;;;;
2020/03/30 00:06:39;;;;;;;3.5;3.2;;;;;;;;;;;;;
2020/03/30 00:09:36;;;;;;;3.7;3.4;;;;;;;;;;;;;
2020/03/30 00:12:01;;;;;;;4;3.7;;;;;;;;;;;;;
2020/03/30 00:14:26;;;;;;;3.9;3.6;;;;;;;;;;;;;
2020/03/30 00:16:51;;;;;;;3.7;3.4;;;;;;;;;;;;;
2020/03/30 00:19:16;;;;;;;3.7;3.4;;;;;;;;;;;;;
2020/03/30 00:21:41;;;;;;;3.9;3.6;;;;;;;;;;;;;
2020/03/30 00:24:06;;;;;;;4.2;3.9;;;;;;;;;;;;;
2020/03/30 00:26:31;;;;;;;3.9;3.5;;;;;;;;;;;;;
2020/03/30 00:28:56;;;;;;;3.7;3.4;;;;;;;;;;;;;
2020/03/30 00:31:21;;;;;;;4.3;3.9;;;;;;;;;;;;;
2020/03/30 00:33:46;;;;;;;4;3.7;;;;;;;;;;;;;
2020/03/30 00:36:12;;;;;;;4.3;3.9;;;;;;;;;;;;;
2020/03/30 00:38:37;;;;;;;3.6;3.3;;;;;;;;;;;;;
2020/03/30 00:41:02;;;;;;;4;3.7;;;;;;;;;;;;;
2020/03/30 00:43:27;;;;;;;4.1;3.8;;;;;;;;;;;;;
2020/03/30 00:45:52;;;;;;;3.6;3.3;;;;;;;;;;;;;
2020/03/30 00:48:17;;;;;;;3.9;3.6;;;;;;;;;;;;;
2020/03/30 00:50:42;;;;;;;4;3.3;;;;;;;;;;;;;
2020/03/30 00:53:07;;;;;;;3.4;3.2;;;;;;;;;;;;;
2020/03/30 00:55:32;;;;;;;3.2;3;;;;;;;;;;;;;
2020/03/30 00:57:57;;;;;;;3.5;3.3;;;;;;;;;;;;;
2020/03/30 01:00:22;;;;;;;3.2;3;;;;;;;;;;;;;
2020/03/30 01:02:47;;;;;;;3.7;3.4;;;;;;;;;;;;;
2020/03/30 01:05:13;;;;;;;3.5;3.2;;;;;;;;;;;;;
2020/03/30 01:07:38;;;;;;;3.1;2.9;;;;;;;;;;;;;
2020/03/30 01:10:03;;;;;;;2.9;2.6;;;;;;;;;;;;;
2020/03/30 01:12:28;;;;;;;3.3;3.1;;;;;;;;;;;;;
2020/03/30 01:14:53;;;;;;;2.9;2.6;;;;;;;;;;;;;
2020/03/30 01:17:18;;;;;;;2.9;2.7;;;;;;;;;;;;;
2020/03/30 01:19:43;;;;;;;3.2;2.8;;;;;;;;;;;;;
2020/03/30 01:22:08;;;;;;;2.9;2.7;;;;;;;;;;;;;
2020/03/30 01:24:33;;;;;;;2.7;2.5;;;;;;;;;;;;;
2020/03/30 01:26:58;;;;;;;2.8;2.6;;;;;;;;;;;;;
2020/03/30 01:29:24;;;;;;;3.6;2.8;;;;;;;;;;;;;
2020/03/30 01:31:49;;;;;;;2.9;2.6;;;;;;;;;;;;;
2020/03/30 01:34:14;;;;;;;2.6;2.4;;;;;;;;;;;;;
2020/03/30 01:36:39;;;;;;;2.8;2.5;;;;;;;;;;;;;
2020/03/30 01:39:04;;;;;;;2.8;2.4;;;;;;;;;;;;;
2020/03/30 01:41:29;;;;;;;3.1;2.3;;;;;;;;;;;;;
2020/03/30 01:43:54;;;;;;;2.7;2.5;;;;;;;;;;;;;
2020/03/30 01:46:19;;;;;;;2.9;2.5;;;;;;;;;;;;;
2020/03/30 01:48:44;;;;;;;3.5;2.7;;;;;;;;;;;;;
2020/03/30 01:51:10;;;;;;;2.8;2.6;;;;;;;;;;;;;
2020/03/30 01:53:35;;;;;;;2.9;2.7;;;;;;;;;;;;;
2020/03/30 01:56:00;;;;;;;3.2;2.9;;;;;;;;;;;;;
2020/03/30 01:58:25;;;;;;;2.7;2.5;;;;;;;;;;;;;
2020/03/30 02:00:50;;;;;;;3.1;2.9;;;;;;;;;;;;;
2020/03/30 02:03:15;;;;;;;3;2.7;;;;;;;;;;;;;
2020/03/30 02:05:40;;;;;;;3.6;3;;;;;;;;;;;;;
2020/03/30 02:08:05;;;;;;;2.7;2.5;;;;;;;;;;;;;
2020/03/30 02:10:30;;;;;;;3;2.8;;;;;;;;;;;;;
2020/03/30 02:12:55;;;;;;;3.3;3;;;;;;;;;;;;;
2020/03/30 02:15:21;;;;;;;3;2.7;;;;;;;;;;;;;
2020/03/30 02:17:46;;;;;;;2.8;2.6;;;;;;;;;;;;;
2020/03/30 02:20:11;;;;;;;3.2;2.9;;;;;;;;;;;;;
2020/03/30 02:22:36;;;;;;;3.2;2.9;;;;;;;;;;;;;
2020/03/30 02:25:03;;;;;;;3.3;3;;;;;;;;;;;;;
2020/03/30 02:27:29;;;;;;;5.5;3;;;;;;;;;;;;;
2020/03/30 02:29:52;;;;;;;3.6;3.3;;;;;;;;;;;;;
2020/03/30 02:32:16;;;;;;;3.8;3.5;;;;;;;;;;;;;
2020/03/30 02:34:41;;;;;;;3.4;3.1;;;;;;;;;;;;;
2020/03/30 02:37:06;;;;;;;3.6;3.3;;;;;;;;;;;;;
2020/03/30 02:39:31;;;;;;;3.8;3.4;;;;;;;;;;;;;
2020/03/30 02:41:56;;;;;;;3.9;3.6;;;;;;;;;;;;;
2020/03/30 02:44:21;;;;;;;4.1;3.7;;;;;;;;;;;;;
2020/03/30 02:46:47;;;;;;;4;3.7;;;;;;;;;;;;;
2020/03/30 02:49:12;;;;;;;4.5;4;;;;;;;;;;;;;
2020/03/30 02:51:37;;;;;;;4.5;3.7;;;;;;;;;;;;;
2020/03/30 02:54:02;;;;;;;4.1;3.7;;;;;;;;;;;;;
2020/03/30 02:56:27;;;;;;;4.2;3.8;;;;;;;;;;;;;
2020/03/30 02:58:52;;;;;;;4.1;3.7;;;;;;;;;;;;;
2020/03/30 03:01:17;;;;;;;4.1;3.6;;;;;;;;;;;;;
2020/03/30 03:04:09;;;;;;;4.1;3.7;;;;;;;1.11;86.22168;964.7858;;;;
2020/03/30 03:06:34;;;;;;;4.1;3.4;;;;;;;0.9;83.79297;964.8222;;;;
2020/03/30 03:09:00;;;;;;;3.7;3.4;;;;;;;0.93;84.58594;964.795;;;;
2020/03/30 03:11:25;;;;;;;4;3.6;;;;;;;0.95;84.78027;964.7778;;;;
2020/03/30 03:13:50;;;;;;;4.2;3.8;;;;;;;1.07;85.49219;964.7156;;;;
2020/03/30 03:16:15;;;;;;;4;3.6;;;;;;;0.97;83.98535;964.855;;;;
2020/03/30 03:18:40;;;;;;;4.5;3.6;;;;;;;1.02;84.63867;964.7905;;;;
2020/03/30 03:21:05;;;;;;;3.8;3.4;;;;;;;0.98;84.82129;964.7958;;;;
2020/03/30 03:23:30;;;;;;;4;3.6;;;;;;;0.94;84.02637;964.7491;;;;
2020/03/30 03:25:55;;;;;;;4.1;3.7;;;;;;;1.05;84.67871;964.7626;;;;
2020/03/30 03:28:20;;;;;;;4.5;4;;;;;;;;;;;;;
2020/03/30 03:30:45;;;;;;;4.3;3.4;;;;;;;;;;;;;
2020/03/30 03:33:11;;;;;;;4;3.6;;;;;;;;;;;;;
2020/03/30 03:35:36;;;;;;;3.9;3.5;;;;;;;;;;;;;
2020/03/30 03:38:01;;;;;;;3.9;3.2;;;;;;;;;;;;;
2020/03/30 03:40:26;;;;;;;3.4;3.1;;;;;;;;;;;;;
2020/03/30 03:42:51;;;;;;;4.1;3.1;;;;;;;;;;;;;
2020/03/30 03:45:16;;;;;;;3.4;3.1;;;;;;;;;;;;;
2020/03/30 03:47:41;;;;;;;3.2;2.9;;;;;;;;;;;;;
2020/03/30 03:50:06;;;;;;;3.7;3;;;;;;;;;;;;;
2020/03/30 03:52:31;;;;;;;3.4;2.5;;;;;;;;;;;;;
2020/03/30 03:54:56;;;;;;;3.6;2.4;;;;;;;;;;;;;
2020/03/30 03:57:22;;;;;;;2.8;2.6;;;;;;;;;;;;;
2020/03/30 03:59:47;;;;;;;2.9;2.6;;;;;;;;;;;;;
2020/03/30 04:02:32;;;;;;;2.7;2.3;;;;;;;0.39;77.80273;964.7608;;;;
2020/03/30 04:04:57;;;;;;;2.7;2.5;;;;;;;0.39;78.32129;964.6736;;;;
2020/03/30 04:07:22;;;;;;;3.3;2.4;;;;;;;0.43;77.4834;964.756;;;;
2020/03/30 04:09:47;;;;;;;2.9;2.4;;;;;;;0.42;78.4502;964.7734;;;;
2020/03/30 04:12:12;;;;;;;2.3;2.1;;;;;;;0.4;77.37695;964.7405;;;;
2020/03/30 04:14:37;;;;;;;2.7;2.1;;;;;;;0.35;76.45703;964.7771;;;;
2020/03/30 04:17:02;;;;;;;2.5;2.3;;;;;;;0.26;77.2627;964.7816;;;;
2020/03/30 04:19:27;;;;;;;2.4;2.1;;;;;;;0.13;77.02441;964.8517;;;;
2020/03/30 04:21:53;;;;;;;3.3;2.6;;;;;;;0.07;78.46387;964.7605;;;;
2020/03/30 04:24:18;;;;;;;3.4;2.5;;;;;;;0;78.38086;964.8433;;;;
2020/03/30 04:26:43;;;;;;;3.4;2.5;;;;;;;0.03;77.80371;964.887;;;;
2020/03/30 04:29:08;;;;;;;2.5;2.1;;;;;;;-0.03;77.56641;964.8723;;;;
2020/03/30 04:31:33;;;;;;;3;2.4;;;;;;;-0.09;77.01758;964.9235;;;;
2020/03/30 04:33:58;;;;;;;4.3;2.4;;;;;;;-0.05;78.41797;964.979;;;;
2020/03/30 04:36:23;;;;;;;3.3;2.5;;;;;;;-0.2;78.9502;964.9718;;;;
2020/03/30 04:38:48;;;;;;;2.8;2.5;;;;;;;-0.19;78.30078;964.9925;;;;
2020/03/30 04:41:13;;;;;;;3.8;2.5;;;;;;;-0.18;77.33789;965.0345;;;;
2020/03/30 04:43:38;;;;;;;2.8;2.4;;;;;;;-0.25;76.83105;965.0883;;;;
2020/03/30 04:46:03;;;;;;;3.5;2.6;;;;;;;-0.22;77.36523;965.0609;;;;
2020/03/30 04:48:28;;;;;;;5;2.6;;;;;;;-0.24;77.58398;965.0432;;;;
2020/03/30 04:50:53;;;;;;;3.5;2.4;;;;;;;-0.24;77.31543;965.0712;;;;
2020/03/30 04:53:18;;;;;;;2.8;2.6;;;;;;;-0.29;78.24902;965.0695;;;;
2020/03/30 04:55:44;;;;;;;3.4;2.6;;;;;;;-0.36;77.31738;964.9963;;;;
2020/03/30 04:58:09;;;;;;;3;2.7;;;;;;;-0.39;77.7373;965.0037;;;;
2020/03/30 05:00:34;;;;;;;4.3;2.9;;;;;;;-0.32;77.86133;965.0617;;;;
2020/03/30 05:02:59;;;;;;;3.9;2.7;;;;;;;-0.32;76.90918;965.0358;;;;
2020/03/30 05:05:24;;;;;;;3.3;2.9;;;;;;;-0.35;77.11621;965.043;;;;
2020/03/30 05:07:49;;;;;;;4.3;3.1;;;;;;;-0.33;77.09668;965.1105;;;;
2020/03/30 05:10:14;;;;;;;3.3;2.7;;;;;;;-0.31;76.85449;965.1289;;;;
2020/03/30 05:12:39;;;;;;;4;2.9;;;;;;;-0.29;76.84863;965.1387;;;;
2020/03/30 05:15:04;;;;;;;3.2;2.9;;;;;;;-0.35;76.80176;965.1495;;;;
2020/03/30 05:17:29;;;;;;;4.6;3.2;;;;;;;-0.4;76.97266;965.0941;;;;
2020/03/30 05:19:54;;;;;;;6.1;3.8;;;;;;;-0.24;77.74121;965.1408;;;;
2020/03/30 05:22:20;;;;;;;4.2;3.3;;;;;;;-0.3;77.97656;965.1824;;;;
2020/03/30 05:24:57;;;;;;;4.3;3.2;;;;;;;-0.2;76.81836;965.1697;;;;
2020/03/30 05:27:10;;;;;;;4;3.1;;;;;;;-0.15;76.00684;965.1744;;;;
2020/03/30 05:29:35;;;;;;;4.5;3.1;;;;;;;-0.29;75.90625;965.1739;;;;
2020/03/30 05:32:00;;;;;;;4.3;3.1;;;;;;;-0.24;75.91211;965.2289;;;;
2020/03/30 05:34:25;;;;;;;4.4;3;;;;;;;-0.39;76.15527;965.241;;;;
2020/03/30 05:36:50;;;;;;;4;3.1;;;;;;;-0.28;76.37695;965.2277;;;;
2020/03/30 05:39:15;;;;;;;4.7;3.4;;;;;;;-0.25;76.94336;965.2414;;;;
2020/03/30 05:41:40;;;;;;;5.8;4.4;;;;;;;-0.08;77.26758;965.2108;;;;
2020/03/30 05:44:06;;;;;;;4.2;3.2;;;;;;;-0.2;76.41406;965.2341;;;;
2020/03/30 05:46:31;;;;;;;4.4;3.6;;;;;;;-0.25;76.40625;965.2471;;;;
2020/03/30 05:48:56;;;;;;;4.7;3.3;;;;;;;-0.28;75.97363;965.3177;;;;
2020/03/30 05:51:21;;;;;;;4.2;3.2;;;;;;;-0.21;75.58203;965.3229;;;;
2020/03/30 05:53:46;;;;;;;4.5;3.1;;;;;;;-0.07;74.9668;965.3303;;;;
2020/03/30 05:56:11;;;;;;;3.7;3;;;;;;;-0.09;75.05273;965.3287;;;;
2020/03/30 05:58:36;;;;;;;3.8;2.8;;;;;;;-0.24;74.92676;965.3705;;;;
2020/03/30 06:01:01;;;;;;;5.2;3.2;;;;;;;-0.15;74.69531;965.3858;;;;
2020/03/30 06:03:26;;;;;;;3.8;2.8;;;;;;;-0.27;74.61914;965.4093;;;;
2020/03/30 06:05:51;;;;;;;4.3;2.7;;;;;;;-0.13;73.96875;965.367;;;;
2020/03/30 06:08:17;;;;;;;7.2;2.9;;;;;;;-0.13;74.10352;965.4408;;;;
2020/03/30 06:10:42;;;;;;;4.9;2.9;;;;;;;-0.03;73.77441;965.4034;;;;
2020/03/30 06:13:07;;;;;;;4.2;2.6;;;;;;;-0.23;73.7832;965.435;;;;
2020/03/30 06:16:17;;;;;;;4;2.8;;;;;;;-0.23;73.73828;965.4988;;;;
2020/03/30 06:17:58;;;;;;;4.1;2.9;;;;;;;-0.06;74.05859;965.483;;;;
2020/03/30 06:20:23;;;;;;;4.4;2.8;;;;;;;-0.1;73.8291;965.447;;;;
2020/03/30 06:22:48;;;;;;;4;3;;;;;;;-0.11;73.89355;965.541;;;;
2020/03/30 06:25:13;;;;;;;4.8;3;;;;;;;-0.05;73.5;965.4996;;;;
2020/03/30 06:27:38;;;;;;;5.1;3.1;;;;;;;-0.04;74.42285;965.5803;;;;
2020/03/30 06:30:04;;;;;;;4.2;2.9;;;;;;;0.1;73.86426;965.5787;;;;
2020/03/30 06:32:29;;;;;;;3.7;2.7;;;;;;;0.07;73.73438;965.5869;;;;
2020/03/30 06:34:54;;;;;;;4.1;2.6;;;;;;;0.11;73.83203;965.5729;;;;
2020/03/30 06:37:19;;;;;;;4.3;2.9;;;;;;;0.25;74.28223;965.5984;;;;
2020/03/30 06:39:44;;;;;;;4.3;2.6;;;;;;;0.23;72.84082;965.6187;;;;
2020/03/30 06:42:09;;;;;;;5.3;3;;;;;;;0.11;72.39453;965.6511;;;;
2020/03/30 06:44:34;;;;;;;5.6;2.7;;;;;;;0.26;72.24023;965.6247;;;;
2020/03/30 06:46:59;;;;;;;4.1;3;;;;;;;0.06;72.40723;965.6372;;;;
2020/03/30 06:49:24;;;;;;;4.9;2.6;;;;;;;0.22;72.85059;965.6078;;;;
2020/03/30 06:51:50;;;;;;;4.2;2.7;;;;;;;0.25;71.78613;965.6719;;;;
2020/03/30 06:54:15;;;;;;;4.5;2.5;;;;;;;0.14;71.88184;965.6644;;;;
2020/03/30 06:56:40;;;;;;;4.1;2.5;;;;;;;0.16;72.7627;965.6886;;;;
2020/03/30 06:59:05;;;;;;;3.9;2.5;;;;;;;0.29;72.3916;965.7203;;;;
2020/03/30 07:01:30;;;;;;;4.8;2.6;;;;;;;0.39;71.93652;965.7355;;;;
2020/03/30 07:03:55;;;;;;;3.8;2.6;;;;;;;0.19;71.83496;965.7385;;;;
2020/03/30 07:06:20;;;;;;;5.1;2.9;;;;;;;0.23;71.93262;965.7206;;;;
2020/03/30 07:08:45;;;;;;;3.8;2.6;;;;;;;0.22;70.83887;965.7172;;;;
2020/03/30 07:11:11;;;;;;;4.7;2.8;;;;;;;0.25;70.86719;965.7314;;;;
2020/03/30 07:13:36;;;;;;;5.1;2.8;;;;;;;0.27;70.69043;965.7842;;;;
2020/03/30 07:16:01;;;;;;;7.4;4;;;;;;;0.31;70.42773;965.7683;;;;
2020/03/30 07:18:26;;;;;;;4.6;3.8;;;;;;;0.26;71.46582;965.8019;;;;
2020/03/30 07:20:51;;;;;;;4.9;3.5;;;;;;;0.44;71.81055;965.8887;;;;
2020/03/30 07:23:16;;;;;;;4.1;3.2;;;;;;;0.54;70.16211;965.9012;;;;
2020/03/30 07:25:42;;;;;;;5.8;3.9;;;;;;;0.63;70.29102;965.8869;;;;
2020/03/30 07:28:07;;;;;;;5.3;3.6;;;;;;;0.59;70.90137;965.9564;;;;
2020/03/30 07:30:32;;;;;;;5.2;4;;;;;;;0.59;70.54199;965.9619;;;;
2020/03/30 07:32:57;;;;;;;5.3;4;;;;;;;0.61;71.03906;965.9631;;;;
2020/03/30 07:35:22;;;;;;;5.5;4.5;;;;;;;0.67;70.29688;965.9681;;;;
2020/03/30 07:37:47;;;;;;;5.7;4.3;;;;;;;0.79;71.71191;965.9676;;;;
2020/03/30 07:40:12;;;;;;;6.2;4.8;;;;;;;0.93;70.48438;966.0122;;;;
2020/03/30 07:42:38;;;;;;;5.8;3.8;;;;;;;0.96;69.33105;966.0475;;;;
2020/03/30 07:45:03;;;;;;;5.8;3.6;;;;;;;0.75;70.11719;966.074;;;;
2020/03/30 07:47:28;;;;;;;5.7;3.9;;;;;;;0.81;71.0625;966.0223;;;;
2020/03/30 07:49:53;;;;;;;4.9;3.6;;;;;;;0.99;70.36133;966.019;;;;
2020/03/30 07:52:18;;;;;;;5.9;3.5;;;;;;;0.92;71.18262;966.0206;;;;
2020/03/30 07:54:43;;;;;;;5.7;3.8;;;;;;;0.96;70.08691;966.0719;;;;
2020/03/30 07:57:08;;;;;;;4.2;3.2;;;;;;;0.99;68.43652;966.0977;;;;
2020/03/30 07:59:33;;;;;;;4.8;3.6;;;;;;;0.84;69.875;966.0391;;;;
2020/03/30 08:01:59;;;;;;;3.5;3.1;;;;;;;0.9;69.15234;966.0609;;;;
2020/03/30 08:04:24;;;;;;;4.6;3.2;;;;;;;0.84;69.26758;966.1462;;;;
2020/03/30 08:06:49;;;;;;;5.9;3.9;;;;;;;0.59;69.28223;966.1078;;;;
2020/03/30 08:09:14;;;;;;;7.1;4.1;;;;;;;0.44;69.34863;966.1164;;;;
2020/03/30 08:11:39;;;;;;;6.7;3.8;;;;;;;0.49;69.8623;966.0667;;;;
2020/03/30 08:14:04;;;;;;;5.3;4.4;;;;;;;0.51;69.87598;966.0577;;;;
2020/03/30 08:16:29;;;;;;;10.1;9.1;;;;;;;0.48;70.0625;966.1127;;;;
2020/03/30 08:18:54;;;;;;;7.3;6.1;;;;;;;0.47;70.4209;966.1014;;;;
2020/03/30 08:21:19;;;;;;;6.8;5.6;;;;;;;0.63;70.06543;966.0986;;;;
2020/03/30 08:23:44;;;;;;;8.9;6.4;;;;;;;0.82;69.44434;966.0842;;;;
2020/03/30 08:26:09;;;;;;;6.4;3.3;;;;;;;0.77;69.72949;966.0817;;;;
2020/03/30 08:28:34;;;;;;;4.7;3.4;;;;;;;0.87;69.23828;966.0986;;;;
2020/03/30 08:30:59;;;;;;;6.7;3.8;;;;;;;0.91;69.90918;966.2064;;;;
2020/03/30 08:33:25;;;;;;;5.2;3.4;;;;;;;1.06;68.61621;966.1566;;;;
2020/03/30 08:35:50;;;;;;;5.1;3.4;;;;;;;0.96;67.75781;966.1714;;;;
2020/03/30 08:38:15;;;;;;;4.6;3.5;;;;;;;0.96;68.33105;966.0494;;;;
2020/03/30 08:40:40;;;;;;;5.6;3.1;;;;;;;0.9;68.19629;966.0994;;;;
2020/03/30 08:43:05;;;;;;;6.1;3.3;;;;;;;1.05;67.97266;966.1316;;;;
2020/03/30 08:45:31;;;;;;;5.6;3.5;;;;;;;1.06;67.92969;966.1062;;;;
2020/03/30 08:47:56;;;;;;;5.7;3.6;;;;;;;1.09;68.65527;966.0995;;;;
2020/03/30 08:50:21;;;;;;;5.7;3.3;;;;;;;1.15;67.92285;966.1323;;;;
2020/03/30 08:52:46;;;;;;;5.7;3.3;;;;;;;0.88;67.71094;966.1226;;;;
2020/03/30 08:55:11;;;;;;;4.9;3.2;;;;;;;0.93;67.62793;966.0698;;;;
2020/03/30 08:57:36;;;;;;;5.5;3;;;;;;;0.86;67.33496;966.0897;;;;
2020/03/30 09:00:01;;;;;;;5.5;3.8;;;;;;;1.04;68.61328;966.1047;;;;
2020/03/30 09:04:29;;;;;;;5.3;3.3;;;;;;;1.49;67.72949;966.024;;;;
2020/03/30 09:06:54;;;;;;;4.7;3.5;;;;;;;1.7;66.5;965.9442;;;;
2020/03/30 09:09:19;;;;;;;5.2;3.2;;;;;;;1.71;65.52051;965.9586;;;;
2020/03/30 09:12:04;;;;;;;4.5;3.5;;;;;;;1.75;66.05762;965.933;;;;
2020/03/30 09:14:29;;;;;;;6.1;3.5;;;;;;;1.88;66.23633;965.8994;;;;
2020/03/30 09:16:54;;;;;;;5.1;3.4;;;;;;;1.87;65.4668;965.914;;;;
2020/03/30 09:19:19;;;;;;;6.6;3.5;;;;;;;1.99;64.54785;965.8561;;;;
2020/03/30 09:21:45;;;;;;;5.6;3.6;;;;;;;1.82;65.30176;965.8005;;;;
2020/03/30 09:24:10;;;;;;;5.7;3.8;;;;;;;1.96;66.23633;965.8914;;;;
2020/03/30 09:26:35;;;;;;;5.3;3.5;;;;;;;1.91;65.20313;965.8212;;;;
2020/03/30 09:29:00;;;;;;;5.6;3.8;;;;;;;2.22;64.4707;965.8278;;;;
2020/03/30 09:31:25;;;;;;;5.7;3.6;;;;;;;2.19;63.74414;965.7037;;;;
2020/03/30 09:33:50;;;;;;;5.3;3.6;;;;;;;2.44;64.61816;965.7592;;;;
2020/03/30 09:36:15;;;;;;;5.3;3.4;;;;;;;2.39;62.97363;965.7557;;;;
2020/03/30 09:38:40;;;;;;;6.8;3.8;;;;;;;2.59;63.96289;965.7424;;;;
2020/03/30 09:41:05;;;;;;;4.9;3.6;;;;;;;2.41;62.82813;965.7748;;;;
2020/03/30 09:43:30;;;;;;;4.6;3.5;;;;;;;2.38;63.6709;965.6878;;;;
2020/03/30 09:45:55;;;;;;;5.6;3.9;;;;;;;2.4;64.46582;965.6742;;;;
2020/03/30 09:48:21;;;;;;;7.3;4;;;;;;;2.36;63.75879;965.6256;;;;
2020/03/30 09:50:46;;;;;;;4.4;3.7;;;;;;;2.66;63.80469;965.6164;;;;
2020/03/30 09:53:11;;;;;;;5.8;3.8;;;;;;;2.64;63.86816;965.6213;;;;
2020/03/30 09:55:36;;;;;;;5.7;3.8;;;;;;;2.81;63.06836;965.6464;;;;
2020/03/30 09:58:01;;;;;;;6.3;3.9;;;;;;;2.96;62.08398;965.6301;;;;
2020/03/30 10:00:26;;;;;;;5.7;3.6;;;;;;;2.84;61.75098;965.5432;;;;
2020/03/30 10:02:53;;;;;;;5.4;3.5;;;;;;;2.96;62.79688;965.5703;;;;
2020/03/30 10:05:18;;;;;;;5;3.8;;;;;;;3.11;61.23535;965.526;;;;
2020/03/30 10:07:43;;;;;;;5.5;3.9;;;;;;;3.36;60.75098;965.512;;;;
2020/03/30 10:10:08;;;;;;;6;4.2;;;;;;;3.25;62.41016;965.4626;;;;
2020/03/30 10:12:33;;;;;;;8.3;3.7;;;;;;;3.23;61.40039;965.4279;;;;
2020/03/30 10:14:58;;;;;;;5.9;3.9;;;;;;;3.49;61.32422;965.355;;;;
2020/03/30 10:17:23;;;;;;;5.6;3.8;;;;;;;3.46;60.87891;965.3833;;;;
2020/03/30 10:19:48;;;;;;;5.2;3.7;;;;;;;3.21;60.62793;965.408;;;;
2020/03/30 10:22:13;;;;;;;6.2;3.9;;;;;;;3.19;61.49707;965.3796;;;;
2020/03/30 10:24:40;;;;;;;5.9;3.9;;;;;;;3.07;60.87891;965.3998;;;;
2020/03/30 10:27:05;;;;;;;6.5;4;;;;;;;2.9;61.46484;965.3505;;;;
2020/03/30 10:29:30;;;;;;;5.8;4.5;;;;;;;2.84;60.87012;965.3478;;;;
2020/03/30 10:31:55;;;;;;;6.6;4.3;;;;;;;3.08;61.37793;965.3391;;;;
2020/03/30 10:34:21;;;;;;;5.6;4.1;;;;;;;3.37;60.58203;965.3082;;;;
2020/03/30 10:36:46;;;;;;;5.8;4.3;;;;;;;3.61;60.98047;965.2274;;;;
2020/03/30 10:39:12;;;;;;;5.8;4.3;;;;;;;3.54;59.90527;965.2138;;;;
2020/03/30 10:41:37;;;;;;;7.8;4.4;;;;;;;3.42;61.86914;965.2048;;;;
2020/03/30 10:44:02;;;;;;;4.8;4;;;;;;;3.63;62.69238;965.1979;;;;
2020/03/30 10:46:27;;;;;;;5.3;4;;;;;;;3.77;59.99414;965.1691;;;;
2020/03/30 10:48:52;;;;;;;5.7;4;;;;;;;3.89;59.5127;965.1429;;;;
2020/03/30 10:51:17;;;;;;;6.4;4;;;;;;;4.31;58.94629;965.0633;;;;
2020/03/30 10:54:00;;;;;;;5.3;4.1;;;;;;;4.12;58.85254;965.0858;;;;
2020/03/30 10:56:07;;;;;;;5.2;4.2;;;;;;;4.26;57.03418;965.0779;;;;
2020/03/30 10:58:33;;;;;;;4.9;4.2;;;;;;;4.19;58.44434;965.0383;;;;
2020/03/30 11:00:58;;;;;;;7.7;5.1;;;;;;;4.17;60.70801;965.0354;;;;
2020/03/30 11:03:23;;;;;;;6.9;4.2;;;;;;;3.96;57.79883;965.0106;;;;
2020/03/30 11:05:48;;;;;;;5.1;4.1;;;;;;;4.22;59.13867;965.0289;;;;
2020/03/30 11:08:20;;;;;;;5.2;4.3;;;;;;;4.29;57.62891;965.0369;;;;
2020/03/30 11:10:39;;;;;;;5.5;4.3;;;;;;;4.45;55.7002;965.0016;;;;
2020/03/30 11:13:05;;;;;;;5.3;4.6;;;;;;;4.38;57.08496;965.014;;;;
2020/03/30 11:15:30;;;;;;;5.6;4.6;;;;;;;4.37;57.87793;965.0444;;;;
2020/03/30 11:17:55;;;;;;;5.5;4.5;;;;;;;4.43;57.57813;964.9816;;;;
2020/03/30 11:20:20;;;;;;;5.4;4.4;;;;;;;4.47;55.97363;964.9792;;;;
2020/03/30 11:22:45;;;;;;;6.8;5.1;;;;;;;4.39;54.64648;964.8853;;;;
2020/03/30 11:25:10;;;;;;;7.1;6.1;;;;;;;4.02;58.39648;964.8638;;;;
2020/03/30 11:27:35;;;;;;;6.9;4.8;;;;;;;4.09;57.47852;964.8967;;;;
2020/03/30 11:30:01;;;;;;;7;4.7;;;;;;;4.1;58.06738;964.9062;;;;
2020/03/30 11:32:26;;;;;;;7.4;4.7;;;;;;;3.94;57.30957;964.8525;;;;
2020/03/30 11:34:51;;;;;;;6.4;4.6;;;;;;;3.95;56.21094;964.8498;;;;
2020/03/30 11:37:16;;;;;;;5;4.5;;;;;;;4.01;57.73828;964.8405;;;;
2020/03/30 11:39:41;;;;;;;7.1;5;;;;;;;4.14;58.16504;964.7372;;;;
2020/03/30 11:42:06;;;;;;;5.3;4.2;;;;;;;4.28;56.15234;964.7737;;;;
2020/03/30 11:44:58;;;;;;;6.9;5;;;;;;;4.08;57.23633;964.7606;;;;
2020/03/30 11:47:48;;;;;;;5.5;4.2;;;;;;;4.17;55.51367;964.7151;;;;
2020/03/30 11:50:16;;;;;;;5.9;4.9;;;;;;;3.98;56.63477;964.7023;;;;
2020/03/30 11:52:38;;;;;;;6.1;5.1;;;;;;;4.15;56.35156;964.7084;;;;
2020/03/30 11:55:04;;;;;;;7;5.5;;;;;;;3.99;57.49805;964.6463;;;;
2020/03/30 11:57:29;;;;;;;6.2;4.7;;;;;;;4.11;54.76953;964.7244;;;;
2020/03/30 11:59:54;;;;;;;6.5;4.5;;;;;;;3.9;54.78906;964.7189;;;;
2020/03/30 12:02:19;;;;;;;6.4;4.7;;;;;;;3.82;54.75488;964.6791;;;;
2020/03/30 12:04:44;;;;;;;6.3;4.7;;;;;;;3.63;55.93164;964.6516;;;;
2020/03/30 12:07:09;;;;;;;5.7;4.5;;;;;;;3.9;55.40039;964.6005;;;;
2020/03/30 12:09:34;;;;;;;8.1;5.1;;;;;;;4.16;54.18652;964.6317;;;;
2020/03/30 12:11:59;;;;;;;6.5;4.8;;;;;;;4.41;52.77832;964.6412;;;;
2020/03/30 12:14:25;;;;;;;8.2;4.9;;;;;;;4.27;53.65625;964.6163;;;;
2020/03/30 12:16:50;;;;;;;5.9;5;;;;;;;4.2;51.68555;964.6588;;;;
2020/03/30 12:19:16;;;;;;;7.3;5;;;;;;;4.35;51.30762;964.6245;;;;
2020/03/30 12:21:41;;;;;;;6.3;5;;;;;;;4.43;50.41016;964.5441;;;;
2020/03/30 12:24:07;;;;;;;6.6;4.6;;;;;;;4.27;50.72949;964.5273;;;;
2020/03/30 12:26:32;;;;;;;7.1;4.6;;;;;;;4.36;49.74316;964.4854;;;;
2020/03/30 12:28:57;;;;;;;5.1;4.6;;;;;;;4.53;50.61328;964.4408;;;;
2020/03/30 12:31:22;;;;;;;6.8;4.9;;;;;;;4.54;51.75;964.4725;;;;
2020/03/30 12:33:47;;;;;;;6.2;4.8;;;;;;;4.57;50.9248;964.4425;;;;
2020/03/30 12:36:12;;;;;;;7;4.7;;;;;;;4.89;48.66895;964.3979;;;;
2020/03/30 12:38:37;;;;;;;5.9;4.7;;;;;;;5.19;48.06641;964.2692;;;;
2020/03/30 12:41:03;;;;;;;5.9;4.7;;;;;;;5.09;48.40723;964.3091;;;;
2020/03/30 12:43:27;;;;;;;6.3;4.4;;;;;;;4.76;50.1875;964.2601;;;;
2020/03/30 12:45:53;;;;;;;6.4;4.3;;;;;;;4.96;48.43848;964.3025;;;;
2020/03/30 12:48:17;;;;;;;6;4.6;;;;;;;4.84;49.40137;964.267;;;;
2020/03/30 12:50:42;;;;;;;5.7;3.7;;;;;;;4.57;46.92969;964.2424;;;;
2020/03/30 12:53:07;;;;;;;5;3.8;;;;;;;4.51;48.85254;964.2935;;;;
2020/03/30 12:55:32;;;;;;;4.4;3.5;;;;;;;4.41;47.53711;964.3484;;;;
2020/03/30 12:57:58;;;;;;;5.6;3.7;;;;;;;4.64;48.27637;964.2977;;;;
2020/03/30 13:00:23;;;;;;;4.5;3.2;;;;;;;4.68;47.87207;964.247;;;;
2020/03/30 13:02:48;;;;;;;5.1;3.6;;;;;;;4.81;47.83008;964.2734;;;;
2020/03/30 13:05:13;;;;;;;5.2;3.3;;;;;;;4.82;45.32129;964.2209;;;;
2020/03/30 13:07:38;;;;;;;4.5;3.2;;;;;;;4.76;45.54199;964.2034;;;;
2020/03/30 13:10:03;;;;;;;4.6;2.9;;;;;;;4.8;46.02344;964.2548;;;;
2020/03/30 13:12:29;;;;;;;3.9;3.1;;;;;;;4.94;44.9707;964.2701;;;;
2020/03/30 13:14:54;;;;;;;3.5;2.7;;;;;;;5.03;43.32227;964.2425;;;;
2020/03/30 13:17:19;;;;;;;5.5;3.2;;;;;;;4.85;43.84961;964.2225;;;;
2020/03/30 13:19:44;;;;;;;5;2.8;;;;;;;4.98;43.99805;964.2228;;;;
2020/03/30 13:22:09;;;;;;;3;2.7;;;;;;;5;43.08105;964.1053;;;;
2020/03/30 13:24:34;;;;;;;3.7;2.5;;;;;;;5.31;43.24805;964.0785;;;;
2020/03/30 13:26:59;;;;;;;3.3;2.7;;;;;;;5.22;42.94336;964.1267;;;;
2020/03/30 13:29:24;;;;;;;3.7;2.6;;;;;;;4.93;42.50586;964.2025;;;;
2020/03/30 13:31:49;;;;;;;4.1;2.7;;;;;;;4.92;42.94727;964.1465;;;;
2020/03/30 13:34:16;;;;;;;3.5;2.3;;;;;;;5.04;44.06152;964.2202;;;;
2020/03/30 13:36:40;;;;;;;3.8;2.6;;;;;;;4.91;41.04883;964.1736;;;;
2020/03/30 13:39:05;;;;;;;5.1;2.6;;;;;;;5.06;40.59766;964.217;;;;
2020/03/30 13:41:30;;;;;;;3.2;1.8;;;;;;;4.87;38.55859;964.1207;;;;
2020/03/30 13:43:55;;;;;;;2.1;1.8;;;;;;;5.12;38.53516;964.1135;;;;
2020/03/30 13:46:20;;;;;;;2.9;2;;;;;;;5.33;36.40625;964.1661;;;;
2020/03/30 13:48:45;;;;;;;4;2.2;;;;;;;5.35;36.69141;964.1074;;;;
2020/03/30 13:51:10;;;;;;;3.2;1.7;;;;;;;5.28;36.83301;964.022;;;;
2020/03/30 13:53:35;;;;;;;4.9;1.8;;;;;;;5.34;37.10059;964.0591;;;;
2020/03/30 13:56:01;;;;;;;2.7;1.8;;;;;;;5.32;38.26953;964.0039;;;;
2020/03/30 13:58:26;;;;;;;4.2;2.2;;;;;;;5.54;38.4707;963.9161;;;;
2020/03/30 14:00:51;;;;;;;3.9;1.8;;;;;;;5.44;38.67871;963.9818;;;;
2020/03/30 14:03:16;;;;;;;2.2;1.7;;;;;;;5.43;38.89258;963.9579;;;;
2020/03/30 14:05:42;;;;;;;4.5;2.1;;;;;;;5.22;38.07813;963.903;;;;
2020/03/30 14:08:07;;;;;;;4;2;;;;;;;5.43;38.26855;963.8579;;;;
2020/03/30 14:10:32;;;;;;;3.4;2.2;;;;;;;5.51;39.38965;963.8873;;;;
2020/03/30 14:12:57;;;;;;;5.4;2.1;;;;;;;5.48;38.19238;963.7972;;;;
2020/03/30 14:15:22;;;;;;;2.9;2.1;;;;;;;5.49;39.12598;963.8872;;;;
2020/03/30 14:17:47;;;;;;;4;2.5;;;;;;;5.49;38.18262;964.0287;;;;
2020/03/30 14:20:12;;;;;;;4.9;2.6;;;;;;;5.39;37.85449;963.9545;;;;
2020/03/30 14:22:37;;;;;;;2.5;1.7;;;;;;;5.51;36.89844;963.9077;;;;
2020/03/30 14:25:03;;;;;;;3.4;1.9;;;;;;;5.53;36.51367;963.8226;;;;
2020/03/30 14:27:28;;;;;;;3.1;1.8;;;;;;;5.41;37.42383;963.9077;;;;
2020/03/30 14:29:53;;;;;;;2.6;1.6;;;;;;;5.65;36.54688;963.8405;;;;
2020/03/30 14:32:18;;;;;;;4.8;2;;;;;;;5.4;37.75293;963.7773;;;;
2020/03/30 14:34:43;;;;;;;5;1.8;;;;;;;5.28;36.73047;963.8088;;;;
2020/03/30 14:37:08;;;;;;;4;1.9;;;;;;;5.33;37.96387;963.7637;;;;
2020/03/30 14:39:33;;;;;;;2.9;1.9;;;;;;;5.65;37.96875;963.7957;;;;
2020/03/30 14:41:59;;;;;;;2.5;1.8;;;;;;;5.52;37.90039;963.7405;;;;
2020/03/30 14:44:24;;;;;;;3.6;2.1;;;;;;;5.59;37.87207;963.7742;;;;
2020/03/30 14:46:49;;;;;;;2.9;1.8;;;;;;;5.69;36.69727;963.788;;;;
2020/03/30 14:49:14;;;;;;;2.5;1.6;;;;;;;5.54;36.37695;963.7569;;;;
2020/03/30 14:51:39;;;;;;;2.6;1.9;;;;;;;5.31;34.32227;963.7455;;;;
2020/03/30 14:54:04;;;;;;;2.9;1.7;;;;;;;5.33;36.01855;963.7216;;;;
2020/03/30 14:56:29;;;;;;;2.3;1.6;;;;;;;5.52;35.86426;963.7228;;;;
2020/03/30 14:58:54;;;;;;;3.1;1.5;;;;;;;5.54;36.01367;963.6719;;;;
2020/03/30 15:01:20;;;;;;;2.4;1.5;;;;;;;5.58;33.62793;963.6721;;;;
2020/03/30 15:03:45;;;;;;;4.9;1.6;;;;;;;5.53;34.09082;963.6983;;;;
2020/03/30 15:06:10;;;;;;;4.2;1.7;;;;;;;5.56;33.58105;963.6793;;;;
2020/03/30 15:08:35;;;;;;;3.9;1.4;;;;;;;5.41;35.19434;963.6747;;;;
2020/03/30 15:11:00;;;;;;;2.5;1.6;;;;;;;5.65;34.81641;963.7793;;;;
2020/03/30 15:13:25;;;;;;;3.7;1.6;;;;;;;5.58;34.28906;963.7039;;;;
2020/03/30 15:15:50;;;;;;;2.6;1.7;;;;;;;5.42;34.90039;963.6699;;;;
2020/03/30 15:18:16;;;;;;;2.8;1.6;;;;;;;5.4;35.5127;963.7286;;;;
2020/03/30 15:20:41;;;;;;;5;1.6;;;;;;;5.37;36.80664;963.6829;;;;
2020/03/30 15:23:06;;;;;;;3.8;1.6;;;;;;;5.45;35.59668;963.7053;;;;
2020/03/30 15:25:31;;;;;;;4.4;1.9;;;;;;;5.36;35.77148;963.6786;;;;
2020/03/30 15:27:56;;;;;;;3.3;1.6;;;;;;;5.47;34.68848;963.709;;;;
2020/03/30 15:30:22;;;;;;;4.4;1.7;;;;;;;5.49;35.22559;963.7136;;;;
2020/03/30 15:32:46;;;;;;;3.7;1.4;;;;;;;5.31;34.98242;963.6778;;;;